createdAt,value
2019-02-27T00:01:20.916Z,97704.87
2019-02-27T00:03:50.507Z,97712.97
2019-02-27T00:06:20.198Z,97717.30
2019-02-27T00:08:49.787Z,97716.98
2019-02-27T00:11:19.398Z,97722.70
2019-02-27T00:13:49.102Z,97717.88
2019-02-27T00:16:18.691Z,97722.63
2019-02-27T00:18:48.385Z,97723.44
2019-02-27T00:21:18.059Z,97726.44
2019-02-27T00:23:47.672Z,97726.61
2019-02-27T00:26:17.260Z,97721.95
2019-02-27T00:28:46.876Z,97720.63
2019-02-27T00:31:16.463Z,97727.97
2019-02-27T00:33:46.086Z,97723.20
2019-02-27T00:36:15.674Z,97725.43
2019-02-27T00:38:45.282Z,97723.35
2019-02-27T00:41:14.918Z,97726.34
2019-02-27T00:43:44.505Z,97714.37
2019-02-27T00:46:14.101Z,97717.97
2019-02-27T00:48:43.712Z,97716.83
2019-02-27T00:51:13.306Z,97715.66
2019-02-27T00:53:42.921Z,97711.91
2019-02-27T00:56:12.912Z,97710.00
2019-02-27T00:58:42.638Z,97710.30
2019-02-27T01:01:12.678Z,97706.66
2019-02-27T01:03:42.978Z,97703.91
2019-02-27T01:06:14.825Z,97703.98
2019-02-27T01:08:44.653Z,97704.28
2019-02-27T01:11:18.096Z,97697.20
2019-02-27T01:13:45.556Z,97698.82
2019-02-27T01:16:17.247Z,97695.82
2019-02-27T01:18:48.187Z,97691.55
2019-02-27T01:21:19.936Z,97695.24
2019-02-27T01:23:49.113Z,97689.41
2019-02-27T01:29:18.154Z,97691.28
2019-02-27T01:31:47.838Z,97693.28
2019-02-27T01:34:17.447Z,97692.91
2019-02-27T01:36:47.061Z,97692.39
2019-02-27T01:39:16.650Z,97692.30
2019-02-27T01:41:46.268Z,97691.52
2019-02-27T01:44:15.955Z,97687.83
2019-02-27T01:46:45.638Z,97686.72
2019-02-27T01:49:16.094Z,97681.19
2019-02-27T01:51:46.394Z,97683.34
2019-02-27T01:54:16.011Z,97658.96
2019-02-27T01:56:45.600Z,97661.53
2019-02-27T01:59:16.781Z,97654.73
2019-02-27T02:01:46.530Z,97656.61
2019-02-27T02:04:19.978Z,97645.50
2019-02-27T02:06:47.462Z,97657.30
2019-02-27T02:09:34.284Z,97647.00
2019-02-27T02:12:16.884Z,97651.48
2019-02-27T02:14:59.829Z,97639.38
2019-02-27T02:18:15.838Z,97650.32
2019-02-27T02:21:20.245Z,97649.56
2019-02-27T02:23:56.318Z,97649.66
2019-02-27T02:26:58.210Z,97651.70
2019-02-27T02:30:12.137Z,97639.90
2019-02-27T02:33:05.936Z,97636.09
2019-02-27T02:36:07.181Z,97628.78
2019-02-27T02:39:00.791Z,97632.97
2019-02-27T02:41:49.588Z,97634.30
2019-02-27T02:44:42.131Z,97624.23
2019-02-27T02:47:28.352Z,97621.52
2019-02-27T02:50:26.454Z,97622.28
2019-02-27T02:53:11.647Z,97620.61
2019-02-27T02:56:25.005Z,97620.89
2019-02-27T02:59:35.293Z,97622.59
2019-02-27T03:02:23.743Z,97622.50
2019-02-27T03:05:05.902Z,97622.69
2019-02-27T03:08:04.394Z,97623.03
2019-02-27T03:10:47.180Z,97624.92
2019-02-27T03:14:00.825Z,97622.28
2019-02-27T03:16:41.378Z,97624.14
2019-02-27T03:19:57.524Z,97622.81
2019-02-27T03:22:47.041Z,97616.15
2019-02-27T03:25:42.177Z,97618.84
2019-02-27T03:28:27.893Z,97623.49
2019-02-27T03:31:18.994Z,97612.24
2019-02-27T03:34:10.203Z,97612.50
2019-02-27T03:36:44.661Z,97614.48
2019-02-27T03:39:35.961Z,97602.03
2019-02-27T03:42:39.969Z,97608.78
2019-02-27T03:45:34.841Z,97605.52
2019-02-27T03:48:54.671Z,97602.45
2019-02-27T03:51:49.735Z,97607.10
2019-02-27T03:54:48.389Z,97615.91
2019-02-27T03:57:25.134Z,97615.18
2019-02-27T04:00:11.079Z,97611.92
2019-02-27T04:03:02.392Z,97609.39
2019-02-27T04:05:46.245Z,97617.13
2019-02-27T04:08:29.167Z,97616.70
2019-02-27T04:10:58.831Z,97612.39
2019-02-27T04:13:28.864Z,97609.28
2019-02-27T04:15:58.485Z,97610.95
2019-02-27T04:18:28.435Z,97604.41
2019-02-27T04:20:58.548Z,97613.27
2019-02-27T04:23:28.141Z,97622.17
2019-02-27T04:25:57.753Z,97618.56
2019-02-27T04:28:29.977Z,97611.48
2019-02-27T04:30:58.676Z,97619.13
2019-02-27T04:33:28.333Z,97618.86
2019-02-27T04:35:57.942Z,97616.94
2019-02-27T04:38:28.175Z,97616.42
2019-02-27T04:40:57.895Z,97611.57
2019-02-27T04:43:31.967Z,97607.22
2019-02-27T04:45:58.963Z,97606.41
2019-02-27T04:48:29.935Z,97601.34
2019-02-27T04:50:59.983Z,97609.36
2019-02-27T04:53:31.824Z,97612.97
2019-02-27T04:56:01.006Z,97612.03
2019-02-27T04:58:31.358Z,97615.94
2019-02-27T05:01:01.151Z,97617.11
2019-02-27T05:03:31.538Z,97621.52
2019-02-27T05:06:01.177Z,97625.14
2019-02-27T05:08:30.766Z,97623.89
2019-02-27T05:11:00.364Z,97625.23
2019-02-27T05:13:29.986Z,97625.41
2019-02-27T05:16:01.415Z,97626.20
2019-02-27T05:18:31.588Z,97626.20
2019-02-27T05:21:01.248Z,97618.96
2019-02-27T05:23:33.315Z,97614.06
2019-02-27T05:26:02.457Z,97618.88
2019-02-27T05:28:34.835Z,97612.18
2019-02-27T05:31:04.138Z,97626.27
2019-02-27T05:33:36.521Z,97627.47
2019-02-27T05:36:05.146Z,97628.89
2019-02-27T05:38:35.033Z,97633.38
2019-02-27T05:41:04.614Z,97637.48
2019-02-27T05:43:35.139Z,97644.94
2019-02-27T05:46:04.803Z,97638.41
2019-02-27T05:48:34.424Z,97643.34
2019-02-27T05:51:05.001Z,97647.53
2019-02-27T05:53:35.495Z,97647.00
2019-02-27T05:56:05.163Z,97646.95
2019-02-27T05:58:35.648Z,97643.16
2019-02-27T06:01:05.849Z,97646.83
2019-02-27T06:03:35.527Z,97656.47
2019-02-27T06:06:06.750Z,97655.39
2019-02-27T06:08:38.108Z,97653.63
2019-02-27T06:11:07.807Z,97664.38
2019-02-27T06:13:37.398Z,97663.84
2019-02-27T06:16:09.196Z,97665.16
2019-02-27T06:18:38.324Z,97665.63
2019-02-27T06:21:10.560Z,97664.20
2019-02-27T06:23:40.178Z,97676.59
2019-02-27T06:26:11.332Z,97670.09
2019-02-27T06:28:41.975Z,97665.12
2019-02-27T06:31:12.708Z,97671.17
2019-02-27T06:33:45.776Z,97668.05
2019-02-27T06:36:15.203Z,97671.48
2019-02-27T06:38:45.395Z,97661.25
2019-02-27T06:41:16.459Z,97655.20
2019-02-27T06:43:46.077Z,97654.39
2019-02-27T06:46:17.355Z,97664.02
2019-02-27T06:48:47.255Z,97657.52
2019-02-27T06:51:16.845Z,97656.66
2019-02-27T06:53:47.804Z,97656.45
2019-02-27T06:56:17.869Z,97659.89
2019-02-27T06:58:49.899Z,97652.79
2019-02-27T07:01:18.803Z,97655.27
2019-02-27T07:03:48.471Z,97653.12
2019-02-27T07:06:21.302Z,97654.83
2019-02-27T07:08:49.613Z,97657.14
2019-02-27T07:11:19.866Z,97654.66
2019-02-27T07:13:49.492Z,97656.87
2019-02-27T07:16:20.570Z,97663.30
2019-02-27T07:18:50.433Z,97659.97
2019-02-27T07:21:20.819Z,97661.08
2019-02-27T07:23:51.195Z,97660.45
2019-02-27T07:26:20.786Z,97651.34
2019-02-27T07:28:50.540Z,97661.42
2019-02-27T07:31:20.133Z,97653.98
2019-02-27T07:33:50.211Z,97656.62
2019-02-27T07:36:19.801Z,97656.78
2019-02-27T07:38:49.681Z,97651.83
2019-02-27T07:41:20.917Z,97651.69
2019-02-27T07:43:50.584Z,97655.55
2019-02-27T07:46:22.520Z,97652.80
2019-02-27T07:48:56.304Z,97658.20
2019-02-27T07:51:23.932Z,97660.02
2019-02-27T07:53:54.556Z,97666.02
2019-02-27T07:56:24.847Z,97663.99
2019-02-27T07:58:54.442Z,97665.55
2019-02-27T08:01:24.247Z,97660.50
2019-02-27T08:03:53.923Z,97655.78
2019-02-27T08:06:23.864Z,97653.23
2019-02-27T08:08:56.923Z,97656.06
2019-02-27T08:11:26.428Z,97653.06
2019-02-27T08:13:56.196Z,97652.13
2019-02-27T08:16:25.796Z,97653.97
2019-02-27T08:18:55.492Z,97653.81
2019-02-27T08:21:25.087Z,97655.73
2019-02-27T08:23:55.147Z,97644.56
2019-02-27T08:26:25.119Z,97645.23
2019-02-27T08:28:55.302Z,97652.95
2019-02-27T08:31:27.971Z,97656.73
2019-02-27T08:33:56.730Z,97652.87
2019-02-27T08:36:26.348Z,97650.27
2019-02-27T08:38:56.056Z,97660.63
2019-02-27T08:41:25.653Z,97651.41
2019-02-27T08:43:55.277Z,97650.56
2019-02-27T08:46:25.609Z,97645.30
2019-02-27T08:48:55.237Z,97642.78
2019-02-27T08:51:25.312Z,97646.34
2019-02-27T08:53:58.969Z,97644.61
2019-02-27T08:56:26.747Z,97646.11
2019-02-27T08:58:56.368Z,97637.30
2019-02-27T09:01:26.034Z,97641.13
2019-02-27T09:03:56.470Z,97638.20
2019-02-27T09:06:27.569Z,97639.59
2019-02-27T09:08:57.413Z,97637.94
2019-02-27T09:11:27.034Z,97647.41
2019-02-27T09:13:56.617Z,97643.64
2019-02-27T09:16:26.657Z,97651.53
2019-02-27T09:18:56.315Z,97640.98
2019-02-27T09:21:27.865Z,97645.26
2019-02-27T09:23:57.626Z,97642.45
2019-02-27T09:26:27.257Z,97642.88
2019-02-27T09:28:56.856Z,97645.80
2019-02-27T09:31:26.542Z,97636.87
2019-02-27T09:33:56.212Z,97633.86
2019-02-27T09:36:25.893Z,97639.98
2019-02-27T09:38:57.631Z,97635.52
2019-02-27T09:41:27.649Z,97642.80
2019-02-27T09:43:58.620Z,97635.28
2019-02-27T09:46:28.855Z,97638.12
2019-02-27T09:48:58.703Z,97637.13
2019-02-27T09:51:28.606Z,97637.30
2019-02-27T09:53:58.229Z,97632.27
2019-02-27T09:56:29.198Z,97635.47
2019-02-27T09:58:59.476Z,97635.97
2019-02-27T10:01:34.177Z,97626.40
2019-02-27T10:04:01.348Z,97627.91
2019-02-27T10:06:31.742Z,97631.20
2019-02-27T10:09:01.383Z,97620.44
2019-02-27T10:11:31.041Z,97621.84
2019-02-27T10:14:00.958Z,97614.45
2019-02-27T10:16:34.659Z,97616.66
2019-02-27T10:19:01.900Z,97615.18
2019-02-27T10:21:31.530Z,97613.72
2019-02-27T10:24:04.391Z,97604.56
2019-02-27T10:26:32.577Z,97609.58
2019-02-27T10:29:02.173Z,97607.30
2019-02-27T10:31:32.850Z,97607.68
2019-02-27T10:34:02.576Z,97601.94
2019-02-27T10:36:32.202Z,97594.42
2019-02-27T10:39:02.617Z,97594.42
2019-02-27T10:41:32.373Z,97582.06
2019-02-27T10:44:01.969Z,97598.39
2019-02-27T10:46:31.659Z,97581.26
2019-02-27T10:49:01.288Z,97586.63
2019-02-27T10:51:30.916Z,97591.44
2019-02-27T10:54:04.652Z,97594.81
2019-02-27T10:56:32.357Z,97587.16
2019-02-27T10:59:01.981Z,97590.47
2019-02-27T11:01:33.232Z,97586.50
2019-02-27T11:04:03.763Z,97575.22
2019-02-27T11:06:34.303Z,97584.70
2019-02-27T11:09:09.164Z,97576.81
2019-02-27T11:11:38.797Z,97579.78
2019-02-27T11:14:08.393Z,97576.06
2019-02-27T11:16:38.159Z,97576.45
2019-02-27T11:19:07.861Z,97553.20
2019-02-27T11:21:37.465Z,97561.53
2019-02-27T11:24:07.232Z,97563.13
2019-02-27T11:26:36.990Z,97568.56
2019-02-27T11:29:06.755Z,97563.34
2019-02-27T11:31:36.488Z,97554.13
2019-02-27T11:34:07.803Z,97554.31
2019-02-27T11:36:39.085Z,97555.03
2019-02-27T11:39:09.406Z,97547.91
2019-02-27T11:41:39.001Z,97550.38
2019-02-27T11:44:08.769Z,97545.91
2019-02-27T11:46:38.985Z,97539.83
2019-02-27T11:49:08.843Z,97535.59
2019-02-27T11:51:38.441Z,97529.23
2019-02-27T11:54:09.070Z,97541.97
2019-02-27T11:56:38.878Z,97542.98
2019-02-27T11:59:10.309Z,97540.45
2019-02-27T12:01:40.569Z,97531.11
2019-02-27T12:04:10.242Z,97532.55
2019-02-27T12:06:41.583Z,97512.43
2019-02-27T12:09:11.990Z,97505.95
2019-02-27T12:11:42.117Z,97506.87
2019-02-27T12:14:11.812Z,97508.02
2019-02-27T12:16:42.296Z,97497.06
2019-02-27T12:19:12.329Z,97487.72
2019-02-27T12:21:42.073Z,97483.97
2019-02-27T12:24:12.721Z,97490.86
2019-02-27T12:26:42.428Z,97481.81
2019-02-27T12:29:13.026Z,97480.28
2019-02-27T12:31:47.946Z,97479.59
2019-02-27T12:34:14.371Z,97472.84
2019-02-27T12:36:44.067Z,97479.37
2019-02-27T12:39:15.609Z,97488.36
2019-02-27T12:41:45.074Z,97479.23
2019-02-27T12:44:14.683Z,97483.18
2019-02-27T12:46:45.542Z,97474.84
2019-02-27T12:49:16.926Z,97483.94
2019-02-27T12:51:46.514Z,97479.03
2019-02-27T12:54:16.120Z,97477.40
2019-02-27T12:56:45.709Z,97466.86
2019-02-27T12:59:15.340Z,97466.95
2019-02-27T13:01:45.652Z,97467.89
2019-02-27T13:04:16.297Z,97466.44
2019-02-27T13:06:46.645Z,97458.80
2019-02-27T13:09:16.271Z,97457.16
2019-02-27T13:11:45.907Z,97464.84
2019-02-27T13:14:15.498Z,97466.03
2019-02-27T13:16:46.404Z,97458.05
2019-02-27T13:19:16.549Z,97461.51
2019-02-27T13:21:46.254Z,97469.44
2019-02-27T13:24:16.066Z,97459.24
2019-02-27T13:26:45.745Z,97460.52
2019-02-27T13:29:15.345Z,97452.47
2019-02-27T13:31:44.972Z,97445.13
2019-02-27T13:34:14.609Z,97448.85
2019-02-27T13:36:44.265Z,97456.23
2019-02-27T13:39:13.968Z,97446.11
2019-02-27T13:41:45.523Z,97449.31
2019-02-27T13:44:15.313Z,97448.94
2019-02-27T13:46:44.912Z,97442.38
2019-02-27T13:49:14.655Z,97441.40
2019-02-27T13:51:44.448Z,97446.14
2019-02-27T13:54:14.073Z,97437.34
2019-02-27T13:56:43.763Z,97439.88
2019-02-27T13:59:13.393Z,97443.84
2019-02-27T14:01:43.207Z,97435.20
2019-02-27T14:04:12.902Z,97432.93
2019-02-27T14:06:43.466Z,97428.34
2019-02-27T14:09:14.014Z,97427.89
2019-02-27T14:11:43.751Z,97431.80
2019-02-27T14:14:15.119Z,97422.45
2019-02-27T14:16:44.693Z,97422.59
2019-02-27T14:19:14.321Z,97418.82
2019-02-27T14:21:43.921Z,97421.34
2019-02-27T14:24:14.026Z,97426.59
2019-02-27T14:26:43.622Z,97415.88
2019-02-27T14:29:13.315Z,97417.37
2019-02-27T14:31:43.469Z,97418.91
2019-02-27T14:34:13.691Z,97414.28
2019-02-27T14:36:43.321Z,97415.31
2019-02-27T14:39:14.794Z,97411.74
2019-02-27T14:41:48.002Z,97404.73
2019-02-27T14:44:15.821Z,97403.22
2019-02-27T14:46:45.781Z,97406.44
2019-02-27T14:49:15.414Z,97405.20
2019-02-27T14:51:45.147Z,97408.69
2019-02-27T14:54:15.080Z,97405.27
2019-02-27T14:56:44.681Z,97403.59
2019-02-27T14:59:14.872Z,97395.71
2019-02-27T15:01:48.547Z,97399.02
2019-02-27T15:04:15.885Z,97400.70
2019-02-27T15:06:45.485Z,97395.13
2019-02-27T15:09:15.175Z,97393.20
2019-02-27T15:11:44.971Z,97400.36
2019-02-27T15:14:16.130Z,97405.71
2019-02-27T15:16:49.006Z,97389.30
2019-02-27T15:19:18.901Z,97391.64
2019-02-27T15:21:48.762Z,97388.33
2019-02-27T15:24:18.389Z,97394.11
2019-02-27T15:26:50.442Z,97395.44
2019-02-27T15:29:19.331Z,97390.99
2019-02-27T15:31:48.951Z,97392.73
2019-02-27T15:34:18.616Z,97387.56
2019-02-27T15:36:48.325Z,97388.03
2019-02-27T15:39:21.131Z,97384.17
2019-02-27T15:41:49.231Z,97390.17
2019-02-27T15:44:18.859Z,97388.13
2019-02-27T15:46:48.453Z,97381.72
2019-02-27T15:49:18.141Z,97386.49
2019-02-27T15:51:47.773Z,97391.41
2019-02-27T15:54:17.363Z,97382.50
2019-02-27T15:56:46.987Z,97378.16
2019-02-27T15:59:16.578Z,97377.95
2019-02-27T16:01:46.171Z,97377.65
2019-02-27T16:04:17.558Z,97378.91
2019-02-27T16:06:47.588Z,97377.77
2019-02-27T16:09:17.289Z,97373.39
2019-02-27T16:11:48.121Z,97374.87
2019-02-27T16:14:18.223Z,97378.70
2019-02-27T16:16:47.820Z,97376.09
2019-02-27T16:19:19.054Z,97377.72
2019-02-27T16:21:48.675Z,97374.19
2019-02-27T16:24:18.265Z,97380.16
2019-02-27T16:26:47.888Z,97379.07
2019-02-27T16:29:19.898Z,97386.95
2019-02-27T16:31:48.902Z,97392.72
2019-02-27T16:34:18.505Z,97392.59
2019-02-27T16:36:48.182Z,97390.28
2019-02-27T16:39:17.833Z,97390.73
2019-02-27T16:41:47.533Z,97396.25
2019-02-27T16:44:21.385Z,97389.67
2019-02-27T16:46:48.494Z,97386.64
2019-02-27T16:49:18.113Z,97391.39
2019-02-27T16:51:47.715Z,97385.69
2019-02-27T16:54:19.131Z,97391.64
2019-02-27T16:56:50.893Z,97387.50
2019-02-27T16:59:20.032Z,97392.20
2019-02-27T17:01:49.650Z,97402.42
2019-02-27T17:04:19.245Z,97397.92
2019-02-27T17:06:49.226Z,97398.17
2019-02-27T17:09:20.233Z,97398.82
2019-02-27T17:11:49.829Z,97398.84
2019-02-27T17:14:21.232Z,97397.20
2019-02-27T17:16:50.785Z,97400.59
2019-02-27T17:19:20.427Z,97403.77
2019-02-27T17:21:50.032Z,97403.60
2019-02-27T17:24:21.910Z,97404.55
2019-02-27T17:26:50.991Z,97400.38
2019-02-27T17:29:22.866Z,97405.08
2019-02-27T17:31:55.292Z,97401.77
2019-02-27T17:34:23.282Z,97409.13
2019-02-27T17:36:52.906Z,97406.90
2019-02-27T17:39:27.680Z,97411.06
2019-02-27T17:41:53.875Z,97414.84
2019-02-27T17:44:23.490Z,97411.74
2019-02-27T17:46:54.676Z,97420.89
2019-02-27T17:49:25.473Z,97426.73
2019-02-27T17:51:55.711Z,97426.91
2019-02-27T17:54:25.308Z,97420.62
2019-02-27T17:56:54.926Z,97412.66
2019-02-27T17:59:24.516Z,97404.78
2019-02-27T18:01:58.504Z,97402.34
2019-02-27T18:04:25.455Z,97413.75
2019-02-27T18:06:55.120Z,97409.05
2019-02-27T18:09:26.368Z,97416.64
2019-02-27T18:11:56.171Z,97412.55
2019-02-27T18:14:25.778Z,97408.94
2019-02-27T18:16:55.396Z,97406.86
2019-02-27T18:19:25.020Z,97410.70
2019-02-27T18:21:54.631Z,97409.29
2019-02-27T18:24:24.292Z,97409.67
2019-02-27T18:26:54.178Z,97400.98
2019-02-27T18:29:23.795Z,97395.63
2019-02-27T18:31:53.385Z,97399.16
2019-02-27T18:34:22.999Z,97393.92
2019-02-27T18:36:52.618Z,97400.70
2019-02-27T18:39:22.210Z,97395.46
2019-02-27T18:41:51.899Z,97393.21
2019-02-27T18:44:21.544Z,97393.46
2019-02-27T18:46:51.121Z,97389.77
2019-02-27T18:49:21.009Z,97392.40
2019-02-27T18:51:50.598Z,97386.84
2019-02-27T18:54:22.571Z,97377.72
2019-02-27T18:56:51.638Z,97378.11
2019-02-27T18:59:21.253Z,97387.32
2019-02-27T19:01:50.915Z,97381.33
2019-02-27T19:04:20.536Z,97380.54
2019-02-27T19:06:50.156Z,97385.80
2019-02-27T19:09:19.888Z,97387.13
2019-02-27T19:11:50.891Z,97388.00
2019-02-27T19:14:21.022Z,97389.94
2019-02-27T19:16:52.115Z,97384.11
2019-02-27T19:19:22.121Z,97376.47
2019-02-27T19:21:51.723Z,97385.10
2019-02-27T19:24:26.663Z,97389.64
2019-02-27T19:26:52.793Z,97385.64
2019-02-27T19:29:22.540Z,97381.25
2019-02-27T19:31:52.138Z,97391.52
2019-02-27T19:34:21.750Z,97393.30
2019-02-27T19:36:51.337Z,97390.88
2019-02-27T19:39:21.879Z,97389.84
2019-02-27T19:41:52.283Z,97391.03
2019-02-27T19:44:21.979Z,97382.50
2019-02-27T19:46:51.566Z,97390.25
2019-02-27T19:49:21.155Z,97398.80
2019-02-27T19:51:54.618Z,97389.63
2019-02-27T19:54:22.249Z,97381.08
2019-02-27T19:56:51.935Z,97383.85
2019-02-27T19:59:24.691Z,97370.46
2019-02-27T20:01:53.063Z,97371.46
2019-02-27T20:04:22.717Z,97374.83
2019-02-27T20:06:52.337Z,97370.55
2019-02-27T20:09:22.263Z,97368.88
2019-02-27T20:11:51.950Z,97366.88
2019-02-27T20:14:21.607Z,97367.45
2019-02-27T20:16:54.929Z,97361.01
2019-02-27T20:19:28.418Z,97358.91
2019-02-27T20:21:54.168Z,97354.76
2019-02-27T20:24:23.755Z,97348.91
2019-02-27T20:26:54.687Z,97339.47
2019-02-27T20:29:24.510Z,97347.51
2019-02-27T20:31:54.434Z,97349.92
2019-02-27T20:34:24.897Z,97338.17
2019-02-27T20:36:54.784Z,97338.95
2019-02-27T20:39:24.466Z,97337.67
2019-02-27T20:41:54.202Z,97344.17
2019-02-27T20:44:23.859Z,97329.48
2019-02-27T20:46:53.452Z,97323.08
2019-02-27T20:49:23.072Z,97321.98
2019-02-27T20:51:52.664Z,97321.34
2019-02-27T20:54:22.342Z,97319.97
2019-02-27T20:56:55.571Z,97320.36
2019-02-27T20:59:26.093Z,97324.14
2019-02-27T21:01:54.754Z,97322.55
2019-02-27T21:04:24.343Z,97320.77
2019-02-27T21:06:53.959Z,97323.08
2019-02-27T21:09:23.539Z,97320.02
2019-02-27T21:11:53.154Z,97312.83
2019-02-27T21:14:23.660Z,97312.28
2019-02-27T21:16:54.078Z,97314.19
2019-02-27T21:19:23.758Z,97307.77
2019-02-27T21:21:54.493Z,97312.03
2019-02-27T21:24:24.136Z,97306.09
2019-02-27T21:26:54.159Z,97295.25
2019-02-27T21:29:23.982Z,97300.89
2019-02-27T21:31:53.638Z,97292.27
2019-02-27T21:34:23.326Z,97297.89
2019-02-27T21:36:52.990Z,97289.05
2019-02-27T21:39:25.217Z,97298.88
2019-02-27T21:41:53.914Z,97299.11
2019-02-27T21:44:25.685Z,97295.23
2019-02-27T21:46:54.846Z,97286.78
2019-02-27T21:49:24.460Z,97283.54
2019-02-27T21:51:54.051Z,97287.70
2019-02-27T21:54:23.637Z,97278.39
2019-02-27T21:56:55.107Z,97268.59
2019-02-27T21:59:24.592Z,97266.80
2019-02-27T22:01:56.231Z,97266.96
2019-02-27T22:04:25.593Z,97259.97
2019-02-27T22:06:58.410Z,97258.96
2019-02-27T22:09:26.798Z,97259.13
2019-02-27T22:11:58.162Z,97251.33
2019-02-27T22:14:27.817Z,97253.62
2019-02-27T22:16:57.403Z,97245.59
2019-02-27T22:19:27.086Z,97251.02
2019-02-27T22:21:56.701Z,97251.25
2019-02-27T22:24:26.297Z,97251.27
2019-02-27T22:26:55.907Z,97244.44
2019-02-27T22:29:27.897Z,97245.85
2019-02-27T22:31:56.834Z,97240.00
2019-02-27T22:34:27.790Z,97241.97
2019-02-27T22:36:57.753Z,97238.98
2019-02-27T22:39:27.378Z,97239.42
2019-02-27T22:41:56.989Z,97230.39
2019-02-27T22:44:29.197Z,97232.59
2019-02-27T22:46:57.920Z,97235.50
2019-02-27T22:49:27.543Z,97231.11
2019-02-27T22:51:57.158Z,97226.91
2019-02-27T22:54:26.773Z,97227.62
2019-02-27T22:56:56.364Z,97224.52
2019-02-27T22:59:25.986Z,97218.16
2019-02-27T23:01:56.253Z,97218.41
2019-02-27T23:04:26.379Z,97220.56
2019-02-27T23:06:56.137Z,97213.02
2019-02-27T23:09:26.488Z,97208.72
2019-02-27T23:11:56.380Z,97204.27
2019-02-27T23:14:26.060Z,97207.53
2019-02-27T23:16:55.739Z,97202.70
2019-02-27T23:19:25.420Z,97197.00
2019-02-27T23:21:57.565Z,97197.58
2019-02-27T23:24:26.684Z,97196.03
2019-02-27T23:26:56.297Z,97185.85
2019-02-27T23:29:25.886Z,97186.20
2019-02-27T23:31:55.843Z,97184.65
2019-02-27T23:34:25.557Z,97176.86
2019-02-27T23:36:55.805Z,97173.83
2019-02-27T23:39:26.245Z,97171.26
2019-02-27T23:41:56.565Z,97164.48
2019-02-27T23:44:26.850Z,97167.98
2019-02-27T23:46:57.466Z,97165.34
2019-02-27T23:49:27.739Z,97158.80
2019-02-27T23:51:57.361Z,97150.42
2019-02-27T23:54:26.967Z,97149.94
2019-02-27T23:56:56.579Z,97150.51
2019-02-27T23:59:26.165Z,97145.16
